createdAt,value
2019-02-23T00:01:56.767Z,-5.30
2019-02-23T00:04:42.836Z,-5.00
2019-02-23T00:07:28.998Z,-5.40
2019-02-23T00:14:15.177Z,-5.40
2019-02-23T00:27:14.635Z,-4.70
2019-02-23T00:30:35.200Z,-4.80
2019-02-23T00:33:45.970Z,-5.20
2019-02-23T00:47:16.726Z,-5.50
2019-02-23T00:50:01.954Z,-5.40
2019-02-23T00:52:47.415Z,-5.00
2019-02-23T00:58:21.343Z,-5.00
2019-02-23T01:01:06.879Z,-4.30
2019-02-23T01:03:52.255Z,-4.00
2019-02-23T01:06:37.356Z,-4.10
2019-02-23T01:09:22.653Z,-4.30
2019-02-23T01:12:07.978Z,-4.20
2019-02-23T01:14:53.252Z,-4.00
2019-02-23T01:17:38.371Z,-4.00
2019-02-23T01:20:23.931Z,-4.30
2019-02-23T01:23:09.023Z,-4.40
2019-02-23T01:25:54.830Z,-4.50
2019-02-23T01:28:40.057Z,-4.70
2019-02-23T01:31:25.286Z,-4.90
2019-02-23T01:34:11.584Z,-4.80
2019-02-23T01:37:02.954Z,-4.50
2019-02-23T01:39:53.420Z,-5.10
2019-02-23T01:42:44.660Z,-5.20
2019-02-23T01:49:00.428Z,-5.10
2019-02-23T01:51:46.338Z,-4.40
2019-02-23T01:55:54.380Z,-5.30
2019-02-23T01:58:27.602Z,-5.20
2019-02-23T02:01:13.901Z,-5.30
2019-02-23T02:03:59.183Z,-5.10
2019-02-23T02:06:47.245Z,-4.80
2019-02-23T02:09:57.715Z,-5.00
2019-02-23T02:12:48.593Z,-4.80
2019-02-23T02:21:33.844Z,-5.30
2019-02-23T02:27:31.412Z,-5.20
2019-02-23T02:30:16.343Z,-5.10
2019-02-23T02:33:05.316Z,-4.80
2019-02-23T02:35:51.229Z,-5.00
2019-02-23T02:38:36.352Z,-5.10
2019-02-23T02:41:24.324Z,-4.90
2019-02-23T02:44:09.480Z,-5.00
2019-02-23T02:46:54.955Z,-5.00
2019-02-23T02:49:40.310Z,-4.90
2019-02-23T02:52:25.830Z,-4.90
2019-02-23T02:55:11.369Z,-4.80
2019-02-23T02:57:57.365Z,-5.00
2019-02-23T03:04:30.028Z,-5.00
2019-02-23T03:07:15.025Z,-4.90
2019-02-23T03:10:00.786Z,-4.50
2019-02-23T03:12:45.732Z,-4.90
2019-02-23T03:18:38.393Z,-4.50
2019-02-23T03:21:23.355Z,-4.90
2019-02-23T03:24:09.694Z,-4.80
2019-02-23T03:26:55.205Z,-4.80
2019-02-23T03:29:40.305Z,-4.90
2019-02-23T03:32:25.736Z,-4.60
2019-02-23T03:35:11.486Z,-4.40
2019-02-23T03:37:56.860Z,-4.50
2019-02-23T03:40:42.064Z,-4.70
2019-02-23T03:43:27.385Z,-4.60
2019-02-23T03:46:12.465Z,-4.70
2019-02-23T03:48:57.404Z,-4.70
2019-02-23T03:51:43.258Z,-4.70
2019-02-23T03:54:28.964Z,-4.80
2019-02-23T03:57:14.180Z,-4.50
2019-02-23T03:59:59.451Z,-4.30
2019-02-23T04:02:45.097Z,-4.00
2019-02-23T04:05:30.327Z,-3.80
2019-02-23T04:08:15.819Z,-3.70
2019-02-23T04:11:01.015Z,-3.60
2019-02-23T04:13:46.143Z,-3.20
2019-02-23T04:16:31.494Z,-3.40
2019-02-23T04:19:16.944Z,-3.80
2019-02-23T04:22:02.115Z,-4.00
2019-02-23T04:24:47.366Z,-4.40
2019-02-23T04:27:32.733Z,-4.30
2019-02-23T04:30:20.877Z,-4.40
2019-02-23T04:33:11.951Z,-4.60
2019-02-23T04:35:57.279Z,-4.60
2019-02-23T04:38:42.670Z,-4.30
2019-02-23T04:41:41.290Z,-4.50
2019-02-23T04:44:29.289Z,-4.30
2019-02-23T04:47:51.226Z,-4.80
2019-02-23T04:50:36.890Z,-4.50
2019-02-23T04:53:22.552Z,-4.50
2019-02-23T04:56:10.119Z,-4.50
2019-02-23T04:58:55.447Z,-4.20
2019-02-23T05:01:40.602Z,-4.30
2019-02-23T05:04:25.797Z,-4.10
2019-02-23T05:07:11.393Z,-4.10
2019-02-23T05:09:56.339Z,-4.20
2019-02-23T05:12:41.782Z,-4.30
2019-02-23T05:15:38.341Z,-4.30
2019-02-23T05:18:23.463Z,-4.40
2019-02-23T05:21:10.848Z,-4.50
2019-02-23T05:24:05.826Z,-4.00
2019-02-23T05:26:51.036Z,-4.60
2019-02-23T05:29:36.110Z,-4.50
2019-02-23T05:32:21.378Z,-4.50
2019-02-23T05:38:36.160Z,-4.60
2019-02-23T05:41:26.882Z,-4.20
2019-02-23T05:44:12.365Z,-4.30
2019-02-23T05:46:57.371Z,-4.60
2019-02-23T05:49:42.814Z,-4.50
2019-02-23T05:52:27.949Z,-4.10
2019-02-23T05:56:12.778Z,-4.50
2019-02-23T05:58:55.698Z,-4.70
2019-02-23T06:01:40.650Z,-4.60
2019-02-23T06:04:26.763Z,-4.50
2019-02-23T06:07:14.225Z,-4.10
2019-02-23T06:09:59.281Z,-4.70
2019-02-23T06:12:44.119Z,-4.60
2019-02-23T06:15:31.459Z,-4.50
2019-02-23T06:18:19.916Z,-4.60
2019-02-23T06:21:05.476Z,-4.80
2019-02-23T06:27:43.818Z,-4.60
2019-02-23T06:31:30.336Z,-3.90
2019-02-23T06:34:16.720Z,-4.40
2019-02-23T06:37:02.899Z,-4.10
2019-02-23T06:39:49.093Z,-3.90
2019-02-23T06:42:34.539Z,-3.60
2019-02-23T06:45:19.836Z,-3.80
2019-02-23T06:48:05.054Z,-4.00
2019-02-23T06:50:51.269Z,-3.90
2019-02-23T06:53:44.629Z,-4.00
2019-02-23T06:56:30.247Z,-4.00
2019-02-23T07:07:13.227Z,-4.10
2019-02-23T07:09:59.633Z,-4.00
2019-02-23T07:12:52.437Z,-3.60
2019-02-23T07:16:14.103Z,-3.90
2019-02-23T07:18:33.657Z,-3.70
2019-02-23T07:21:18.949Z,-3.70
2019-02-23T07:24:04.143Z,-3.40
2019-02-23T07:26:49.214Z,-3.30
2019-02-23T07:29:34.520Z,-3.10
2019-02-23T07:32:19.722Z,-2.90
2019-02-23T07:35:06.190Z,-2.90
2019-02-23T07:37:51.520Z,-2.90
2019-02-23T07:40:36.762Z,-2.70
2019-02-23T07:43:21.837Z,-2.40
2019-02-23T07:46:07.455Z,-2.30
2019-02-23T07:49:12.572Z,-2.60
2019-02-23T07:51:57.791Z,-2.90
2019-02-23T07:54:43.030Z,-2.60
2019-02-23T07:57:28.662Z,-2.40
2019-02-23T08:00:33.549Z,-2.30
2019-02-23T08:03:36.827Z,-2.20
2019-02-23T08:09:58.057Z,-2.20
2019-02-23T08:16:57.912Z,-2.00
2019-02-23T08:19:42.725Z,-1.90
2019-02-23T08:22:37.031Z,-1.80
2019-02-23T08:25:15.387Z,-1.60
2019-02-23T08:28:00.316Z,-1.40
2019-02-23T08:30:45.686Z,-1.10
2019-02-23T08:33:30.988Z,-1.20
2019-02-23T08:36:26.704Z,-1.20
2019-02-23T08:43:04.414Z,-1.20
2019-02-23T08:45:49.408Z,-1.10
2019-02-23T08:48:34.471Z,-1.00
2019-02-23T08:51:20.164Z,-0.80
2019-02-23T08:54:05.372Z,-0.70
2019-02-23T08:56:50.619Z,-0.70
2019-02-23T08:59:35.718Z,-0.40
2019-02-23T09:02:21.238Z,-0.70
2019-02-23T09:05:08.777Z,-0.80
2019-02-23T09:07:53.783Z,-0.80
2019-02-23T09:10:56.255Z,-0.70
2019-02-23T09:14:44.765Z,-0.70
2019-02-23T09:17:17.819Z,-0.30
2019-02-23T09:20:05.754Z,-0.60
2019-02-23T09:22:59.710Z,-0.60
2019-02-23T09:25:38.116Z,-0.60
2019-02-23T09:28:23.102Z,-0.30
2019-02-23T09:31:08.121Z,-0.10
2019-02-23T09:33:53.516Z,0.00
2019-02-23T09:36:38.776Z,0.00
2019-02-23T09:39:23.943Z,-0.30
2019-02-23T09:42:09.286Z,-0.30
2019-02-23T09:44:54.488Z,-0.40
2019-02-23T09:54:48.655Z,-0.30
2019-02-23T09:57:33.752Z,-0.30
2019-02-23T10:00:19.092Z,-0.10
2019-02-23T10:03:04.643Z,-0.10
2019-02-23T10:05:59.702Z,0.20
2019-02-23T10:08:48.351Z,-0.10
2019-02-23T10:11:33.312Z,-0.10
2019-02-23T10:14:18.710Z,0.10
2019-02-23T10:17:03.930Z,0.20
2019-02-23T10:19:49.063Z,0.20
2019-02-23T10:22:34.201Z,0.10
2019-02-23T10:25:19.426Z,0.20
2019-02-23T10:28:04.219Z,0.50
2019-02-23T10:30:49.774Z,0.50
2019-02-23T10:33:37.109Z,0.60
2019-02-23T10:36:22.279Z,0.40
2019-02-23T10:39:07.508Z,0.40
2019-02-23T10:41:52.583Z,0.50
2019-02-23T10:44:37.874Z,0.50
2019-02-23T10:47:22.997Z,0.50
2019-02-23T10:50:11.626Z,0.60
2019-02-23T10:52:56.711Z,0.70
2019-02-23T10:55:41.695Z,0.60
2019-02-23T10:58:27.185Z,0.50
2019-02-23T11:01:12.160Z,0.60
2019-02-23T11:03:57.356Z,0.70
2019-02-23T11:06:42.689Z,0.80
2019-02-23T11:09:29.943Z,0.70
2019-02-23T11:12:15.483Z,0.60
2019-02-23T11:15:00.464Z,0.50
2019-02-23T11:17:45.874Z,0.60
2019-02-23T11:20:31.681Z,0.80
2019-02-23T11:23:18.108Z,0.80
2019-02-23T11:26:03.295Z,1.00
2019-02-23T11:28:48.302Z,1.00
2019-02-23T11:31:33.691Z,0.90
2019-02-23T11:34:18.838Z,0.90
2019-02-23T11:37:04.190Z,0.80
2019-02-23T11:39:49.446Z,0.90
2019-02-23T11:42:34.918Z,0.80
2019-02-23T11:45:21.244Z,0.90
2019-02-23T11:48:06.628Z,1.10
2019-02-23T11:50:52.084Z,0.80
2019-02-23T11:53:37.143Z,0.90
2019-02-23T11:56:22.358Z,0.90
2019-02-23T11:59:07.835Z,0.80
2019-02-23T12:01:54.377Z,0.80
2019-02-23T12:04:39.596Z,0.90
2019-02-23T12:07:24.717Z,1.10
2019-02-23T12:10:15.207Z,0.90
2019-02-23T12:13:00.587Z,1.00
2019-02-23T12:15:45.709Z,1.00
2019-02-23T12:18:31.217Z,0.90
2019-02-23T12:21:16.330Z,1.00
2019-02-23T12:24:06.058Z,1.10
2019-02-23T12:26:48.608Z,1.20
2019-02-23T12:29:33.990Z,1.30
2019-02-23T12:32:19.783Z,1.20
2019-02-23T12:35:10.796Z,1.10
2019-02-23T12:37:56.208Z,1.10
2019-02-23T12:40:41.669Z,1.10
2019-02-23T12:43:26.546Z,1.10
2019-02-23T12:46:11.862Z,1.10
2019-02-23T12:48:57.231Z,1.20
2019-02-23T12:51:43.604Z,1.30
2019-02-23T12:54:29.064Z,1.40
2019-02-23T12:57:16.002Z,1.50
2019-02-23T13:00:01.302Z,1.60
2019-02-23T13:02:46.606Z,1.50
2019-02-23T13:05:31.997Z,1.70
2019-02-23T13:08:17.203Z,1.60
2019-02-23T13:11:02.145Z,1.60
2019-02-23T13:13:54.055Z,1.60
2019-02-23T13:16:39.199Z,1.50
2019-02-23T13:19:47.965Z,1.50
2019-02-23T13:22:49.078Z,1.80
2019-02-23T13:25:44.354Z,1.60
2019-02-23T13:28:42.408Z,1.80
2019-02-23T13:31:49.274Z,1.90
2019-02-23T13:34:47.412Z,2.10
2019-02-23T13:37:57.326Z,2.10
2019-02-23T13:40:48.850Z,2.30
2019-02-23T13:43:50.178Z,1.90
2019-02-23T13:46:44.490Z,1.70
2019-02-23T13:50:03.745Z,1.60
2019-02-23T13:53:04.144Z,1.70
2019-02-23T13:56:08.261Z,2.10
2019-02-23T13:58:57.031Z,2.20
2019-02-23T14:02:01.279Z,2.10
2019-02-23T14:05:01.881Z,2.00
2019-02-23T14:08:02.753Z,2.00
2019-02-23T14:11:10.843Z,2.00
2019-02-23T14:14:17.597Z,1.90
2019-02-23T14:17:21.342Z,2.00
2019-02-23T14:20:30.890Z,1.90
2019-02-23T14:23:31.079Z,1.70
2019-02-23T14:26:31.369Z,1.70
2019-02-23T14:29:25.792Z,1.60
2019-02-23T14:32:17.540Z,1.60
2019-02-23T14:35:06.659Z,1.60
2019-02-23T14:38:10.641Z,1.60
2019-02-23T14:41:04.801Z,1.60
2019-02-23T14:44:12.072Z,1.50
2019-02-23T14:47:28.812Z,1.50
2019-02-23T14:50:37.464Z,1.70
2019-02-23T14:53:39.153Z,1.60
2019-02-23T14:56:50.641Z,1.50
2019-02-23T14:59:57.987Z,1.50
2019-02-23T15:03:06.461Z,1.60
2019-02-23T15:06:04.345Z,1.60
2019-02-23T15:09:08.145Z,1.50
2019-02-23T15:11:56.721Z,1.50
2019-02-23T15:14:57.786Z,1.50
2019-02-23T15:17:48.974Z,1.50
2019-02-23T15:20:43.801Z,1.60
2019-02-23T15:23:38.546Z,1.70
2019-02-23T15:26:38.943Z,1.40
2019-02-23T15:29:37.248Z,1.40
2019-02-23T15:32:52.105Z,1.40
2019-02-23T15:35:46.785Z,1.40
2019-02-23T15:38:38.955Z,1.40
2019-02-23T15:41:50.740Z,1.40
2019-02-23T15:45:00.531Z,1.30
2019-02-23T15:48:04.911Z,1.20
2019-02-23T15:50:50.417Z,1.20
2019-02-23T15:53:35.433Z,1.10
2019-02-23T15:56:20.791Z,1.00
2019-02-23T15:59:05.873Z,0.90
2019-02-23T16:01:50.858Z,1.00
2019-02-23T16:04:35.925Z,0.90
2019-02-23T16:07:23.202Z,1.00
2019-02-23T16:10:08.662Z,0.80
2019-02-23T16:12:53.844Z,0.80
2019-02-23T16:15:39.019Z,0.70
2019-02-23T16:18:24.271Z,0.80
2019-02-23T16:21:09.242Z,0.60
2019-02-23T16:23:56.494Z,0.50
2019-02-23T16:26:42.185Z,0.50
2019-02-23T16:29:27.855Z,0.40
2019-02-23T16:32:12.680Z,0.40
2019-02-23T16:34:57.496Z,0.30
2019-02-23T16:37:42.567Z,0.30
2019-02-23T16:40:27.864Z,0.20
2019-02-23T16:43:13.950Z,0.20
2019-02-23T16:45:59.050Z,0.10
2019-02-23T16:48:44.435Z,0.10
2019-02-23T16:51:29.615Z,0.00
2019-02-23T16:54:15.258Z,0.10
2019-02-23T16:57:00.543Z,0.00
2019-02-23T16:59:45.791Z,0.00
2019-02-23T17:02:31.034Z,-0.10
2019-02-23T17:05:16.351Z,-0.10
2019-02-23T17:08:01.997Z,-0.10
2019-02-23T17:10:47.374Z,0.00
2019-02-23T17:13:32.563Z,-0.20
2019-02-23T17:16:18.065Z,-0.20
2019-02-23T17:19:04.388Z,-0.20
2019-02-23T17:21:49.913Z,-0.30
2019-02-23T17:24:35.216Z,-0.30
2019-02-23T17:27:20.750Z,-0.30
2019-02-23T17:30:08.459Z,-0.40
2019-02-23T17:33:13.452Z,-0.10
2019-02-23T17:35:59.572Z,-0.20
2019-02-23T17:38:45.412Z,-0.50
2019-02-23T17:41:31.177Z,-0.50
2019-02-23T17:44:16.191Z,-0.60
2019-02-23T17:47:01.619Z,-0.60
2019-02-23T17:49:47.542Z,-0.50
2019-02-23T17:52:33.562Z,-0.60
2019-02-23T17:55:18.424Z,-0.60
2019-02-23T17:58:03.753Z,-0.70
2019-02-23T18:00:51.852Z,-0.70
2019-02-23T18:03:40.192Z,-0.30
2019-02-23T18:06:25.265Z,-0.70
2019-02-23T18:09:11.742Z,-0.70
2019-02-23T18:11:59.389Z,-0.80
2019-02-23T18:14:47.468Z,-0.70
2019-02-23T18:17:34.989Z,-0.80
2019-02-23T18:20:24.910Z,-0.80
2019-02-23T18:23:12.383Z,-0.80
2019-02-23T18:25:59.189Z,-0.90
2019-02-23T18:28:47.855Z,-0.50
2019-02-23T18:31:33.555Z,-0.90
2019-02-23T18:34:21.274Z,-0.90
2019-02-23T18:37:08.499Z,-0.90
2019-02-23T18:39:55.942Z,-1.00
2019-02-23T18:42:41.007Z,-1.00
2019-02-23T18:45:26.700Z,-1.00
2019-02-23T18:48:11.343Z,-1.00
2019-02-23T18:50:56.621Z,-1.00
2019-02-23T18:53:42.201Z,-0.90
2019-02-23T18:56:29.668Z,-0.50
2019-02-23T18:59:15.274Z,-1.10
2019-02-23T19:02:00.594Z,-1.00
2019-02-23T19:04:46.071Z,-0.90
2019-02-23T19:07:30.878Z,-1.10
2019-02-23T19:10:16.518Z,-1.10
2019-02-23T19:13:08.605Z,-1.00
2019-02-23T19:15:54.477Z,-0.80
2019-02-23T19:18:39.476Z,-1.00
2019-02-23T19:21:24.643Z,-1.10
2019-02-23T19:24:10.173Z,-1.10
2019-02-23T19:26:56.712Z,-1.10
2019-02-23T19:29:41.936Z,-1.00
2019-02-23T19:32:27.194Z,-1.10
2019-02-23T19:35:12.373Z,-0.80
2019-02-23T19:37:58.761Z,-1.10
2019-02-23T19:40:43.980Z,-1.20
2019-02-23T19:43:29.259Z,-1.20
2019-02-23T19:46:14.217Z,-1.00
2019-02-23T19:48:59.402Z,-1.20
2019-02-23T19:51:45.063Z,-1.20
2019-02-23T19:54:30.257Z,-1.20
2019-02-23T19:57:16.253Z,-1.20
2019-02-23T20:00:01.670Z,-1.10
2019-02-23T20:02:46.626Z,-1.20
2019-02-23T20:05:32.446Z,-1.20
2019-02-23T20:08:19.117Z,-1.10
2019-02-23T20:11:04.425Z,-1.20
2019-02-23T20:13:49.410Z,-1.10
2019-02-23T20:16:35.380Z,-1.10
2019-02-23T20:19:20.733Z,-1.00
2019-02-23T20:22:05.963Z,-1.00
2019-02-23T20:24:50.942Z,-1.00
2019-02-23T20:27:36.316Z,-1.00
2019-02-23T20:30:21.698Z,-1.00
2019-02-23T20:33:06.632Z,-0.90
2019-02-23T20:35:52.138Z,-0.90
2019-02-23T20:38:37.224Z,-0.90
2019-02-23T20:41:23.457Z,-0.60
2019-02-23T20:44:08.704Z,-1.00
2019-02-23T20:46:54.843Z,-0.70
2019-02-23T20:49:40.104Z,-0.80
2019-02-23T20:52:25.783Z,-0.80
2019-02-23T20:55:10.818Z,-0.80
2019-02-23T20:57:57.374Z,-0.80
2019-02-23T21:00:42.719Z,-0.80
2019-02-23T21:03:27.599Z,-0.80
2019-02-23T21:06:13.207Z,-0.80
2019-02-23T21:08:58.343Z,-0.50
2019-02-23T21:11:43.871Z,-0.70
2019-02-23T21:14:29.228Z,-0.70
2019-02-23T21:17:14.355Z,-0.70
2019-02-23T21:19:59.992Z,-0.60
2019-02-23T21:22:45.781Z,-0.70
2019-02-23T21:25:31.388Z,-0.70
2019-02-23T21:28:19.342Z,-0.60
2019-02-23T21:31:04.807Z,-0.70
2019-02-23T21:33:49.868Z,-0.70
2019-02-23T21:36:35.300Z,-0.70
2019-02-23T21:39:20.552Z,-0.60
2019-02-23T21:42:08.324Z,-0.60
2019-02-23T21:44:53.318Z,-0.60
2019-02-23T21:47:38.919Z,-0.60
2019-02-23T21:50:24.512Z,-0.60
2019-02-23T21:53:09.858Z,-0.60
2019-02-23T21:55:54.942Z,-0.70
2019-02-23T21:59:01.748Z,-0.60
2019-02-23T22:01:46.920Z,-0.60
2019-02-23T22:04:33.133Z,-0.60
2019-02-23T22:07:20.016Z,-0.60
2019-02-23T22:10:07.119Z,-0.60
2019-02-23T22:12:52.683Z,-0.60
2019-02-23T22:15:37.672Z,-0.60
2019-02-23T22:18:23.079Z,-0.60
2019-02-23T22:21:08.229Z,-0.60
2019-02-23T22:23:53.861Z,-0.50
2019-02-23T22:26:38.791Z,-0.70
2019-02-23T22:29:26.576Z,-0.60
2019-02-23T22:32:11.460Z,-0.60
2019-02-23T22:34:56.643Z,-0.60
2019-02-23T22:37:44.185Z,-0.60
2019-02-23T22:40:29.530Z,-0.50
2019-02-23T22:43:17.192Z,-0.30
2019-02-23T22:46:03.067Z,-0.40
2019-02-23T22:48:48.279Z,-0.40
2019-02-23T22:51:33.641Z,-0.40
2019-02-23T22:54:18.735Z,-0.40
2019-02-23T22:57:05.515Z,-0.40
2019-02-23T22:59:53.004Z,-0.30
2019-02-23T23:02:40.305Z,-0.30
2019-02-23T23:05:25.792Z,0.00
2019-02-23T23:08:11.111Z,-0.20
2019-02-23T23:10:56.492Z,-0.30
2019-02-23T23:13:41.845Z,-0.30
2019-02-23T23:16:26.985Z,-0.30
2019-02-23T23:19:12.984Z,-0.20
2019-02-23T23:21:59.985Z,-0.20
2019-02-23T23:24:45.226Z,-0.20
2019-02-23T23:27:30.780Z,-0.20
2019-02-23T23:30:15.704Z,-0.20
2019-02-23T23:33:01.335Z,-0.10
2019-02-23T23:35:46.556Z,-0.20
2019-02-23T23:38:31.718Z,-0.30
2019-02-23T23:41:16.782Z,-0.20
2019-02-23T23:44:02.071Z,-0.20
2019-02-23T23:46:47.718Z,-0.20
2019-02-23T23:49:32.626Z,-0.20
2019-02-23T23:52:17.780Z,-0.20
2019-02-23T23:55:24.741Z,-0.20
2019-02-23T23:58:10.879Z,-0.10
